createdAt,value
2022-10-28T00:00:47.295Z,10.90
2022-10-28T00:03:48.257Z,10.90
2022-10-28T00:06:45.094Z,10.70
2022-10-28T00:09:41.960Z,10.70
2022-10-28T00:12:39.221Z,10.50
2022-10-28T00:15:36.105Z,10.60
2022-10-28T00:18:33.006Z,10.70
2022-10-28T00:21:36.105Z,10.60
2022-10-28T00:24:32.942Z,10.60
2022-10-28T00:27:29.904Z,10.60
2022-10-28T00:30:27.045Z,10.60
2022-10-28T00:33:23.914Z,10.60
2022-10-28T00:36:32.860Z,10.60
2022-10-28T00:39:29.737Z,10.70
2022-10-28T00:42:26.875Z,10.70
2022-10-28T00:45:24.506Z,10.50
2022-10-28T00:48:21.369Z,10.50
2022-10-28T00:51:22.795Z,10.50
2022-10-28T00:54:20.942Z,10.50
2022-10-28T00:57:24.325Z,10.50
2022-10-28T01:00:21.334Z,10.40
2022-10-28T01:03:18.673Z,10.30
2022-10-28T01:06:16.326Z,10.30
2022-10-28T01:09:13.183Z,10.20
2022-10-28T01:12:37.173Z,10.30
2022-10-28T01:15:51.460Z,10.20
2022-10-28T01:19:14.934Z,10.10
2022-10-28T01:22:23.754Z,10.20
2022-10-28T01:25:51.265Z,10.20
2022-10-28T01:29:34.800Z,10.10
2022-10-28T01:33:11.898Z,10.00
2022-10-28T01:36:17.845Z,10.10
2022-10-28T01:39:37.511Z,10.00
2022-10-28T01:42:47.289Z,9.90
2022-10-28T01:46:07.891Z,10.00
2022-10-28T01:49:31.793Z,10.10
2022-10-28T01:52:31.756Z,9.90
2022-10-28T01:55:36.268Z,9.80
2022-10-28T01:58:33.898Z,9.90
2022-10-28T02:01:32.962Z,9.90
2022-10-28T02:04:29.992Z,9.80
2022-10-28T02:07:26.817Z,9.80
2022-10-28T02:10:34.070Z,9.80
2022-10-28T02:13:46.806Z,9.90
2022-10-28T02:16:52.263Z,9.90
2022-10-28T02:20:17.203Z,9.70
2022-10-28T02:23:38.343Z,9.70
2022-10-28T02:26:41.573Z,9.70
2022-10-28T02:29:57.278Z,9.70
2022-10-28T02:33:01.554Z,9.70
2022-10-28T02:36:05.075Z,9.60
2022-10-28T02:39:04.294Z,9.60
2022-10-28T02:42:08.868Z,9.60
2022-10-28T02:45:23.990Z,9.70
2022-10-28T02:48:55.055Z,9.70
2022-10-28T02:52:03.729Z,9.70
2022-10-28T02:55:04.674Z,9.60
2022-10-28T02:58:01.863Z,9.50
2022-10-28T03:00:58.697Z,9.40
2022-10-28T03:03:55.703Z,9.40
2022-10-28T03:06:52.528Z,9.30
2022-10-28T03:09:49.430Z,9.40
2022-10-28T03:12:46.264Z,9.40
2022-10-28T03:15:43.059Z,9.40
2022-10-28T03:18:40.006Z,9.40
2022-10-28T03:21:36.832Z,9.30
2022-10-28T03:24:33.666Z,9.40
2022-10-28T03:27:30.531Z,9.30
2022-10-28T03:30:27.350Z,9.30
2022-10-28T03:33:24.219Z,9.30
2022-10-28T03:36:21.060Z,9.40
2022-10-28T03:39:17.865Z,9.40
2022-10-28T03:42:14.674Z,9.30
2022-10-28T03:45:11.586Z,9.20
2022-10-28T03:48:08.434Z,9.10
2022-10-28T03:51:05.477Z,9.20
2022-10-28T03:54:02.397Z,9.20
2022-10-28T03:56:59.242Z,9.10
2022-10-28T03:59:56.392Z,9.10
2022-10-28T04:02:54.058Z,9.00
2022-10-28T04:05:51.347Z,9.10
2022-10-28T04:08:48.188Z,9.20
2022-10-28T04:11:49.359Z,9.10
2022-10-28T04:14:46.388Z,9.00
2022-10-28T04:17:43.671Z,9.00
2022-10-28T04:20:40.604Z,9.00
2022-10-28T04:23:37.525Z,9.10
2022-10-28T04:26:34.446Z,9.10
2022-10-28T04:29:33.003Z,9.00
2022-10-28T04:32:29.902Z,9.00
2022-10-28T04:35:26.836Z,9.10
2022-10-28T04:41:21.833Z,9.10
2022-10-28T04:44:18.662Z,9.10
2022-10-28T04:47:16.452Z,9.10
2022-10-28T04:50:13.440Z,9.10
2022-10-28T04:53:10.953Z,9.10
2022-10-28T04:56:08.610Z,9.20
2022-10-28T04:59:05.455Z,9.10
2022-10-28T05:02:02.490Z,9.20
2022-10-28T05:05:03.399Z,9.20
2022-10-28T05:08:00.249Z,9.20
2022-10-28T05:10:57.139Z,9.20
2022-10-28T05:13:54.137Z,9.10
2022-10-28T05:16:50.980Z,9.10
2022-10-28T05:19:47.968Z,9.10
2022-10-28T05:22:54.870Z,9.10
2022-10-28T05:25:52.523Z,9.20
2022-10-28T05:28:50.563Z,9.20
2022-10-28T05:31:47.428Z,9.20
2022-10-28T05:34:44.239Z,9.30
2022-10-28T05:37:41.063Z,9.30
2022-10-28T05:40:37.895Z,9.20
2022-10-28T05:43:34.735Z,9.10
2022-10-28T05:46:31.696Z,9.20
2022-10-28T05:49:31.480Z,9.10
2022-10-28T05:52:28.368Z,9.10
2022-10-28T05:55:28.425Z,9.10
2022-10-28T05:58:25.339Z,9.10
2022-10-28T06:01:22.228Z,9.20
2022-10-28T06:04:19.193Z,9.20
2022-10-28T06:07:16.054Z,9.30
2022-10-28T06:10:12.939Z,9.20
2022-10-28T06:13:08.301Z,9.20
2022-10-28T06:16:05.383Z,9.30
2022-10-28T06:19:02.216Z,9.40
2022-10-28T06:21:59.063Z,9.30
2022-10-28T06:24:55.978Z,9.30
2022-10-28T06:27:58.416Z,9.30
2022-10-28T06:31:04.879Z,9.30
2022-10-28T06:34:04.187Z,9.30
2022-10-28T06:37:01.041Z,9.30
2022-10-28T06:39:58.833Z,9.30
2022-10-28T06:43:00.818Z,9.30
2022-10-28T06:46:03.779Z,9.40
2022-10-28T06:49:05.890Z,9.40
2022-10-28T06:52:03.059Z,9.50
2022-10-28T06:54:59.891Z,9.60
2022-10-28T06:58:03.169Z,9.60
2022-10-28T07:01:04.869Z,9.70
2022-10-28T07:04:04.493Z,9.80
2022-10-28T07:07:01.361Z,9.80
2022-10-28T07:09:58.250Z,9.80
2022-10-28T07:12:55.460Z,9.90
2022-10-28T07:15:54.170Z,10.00
2022-10-28T07:18:51.081Z,10.00
2022-10-28T07:21:48.466Z,10.20
2022-10-28T07:24:45.346Z,10.40
2022-10-28T07:27:42.166Z,10.50
2022-10-28T07:30:38.977Z,10.70
2022-10-28T07:33:35.856Z,10.90
2022-10-28T07:36:32.788Z,11.00
2022-10-28T07:39:30.119Z,11.00
2022-10-28T07:42:27.014Z,11.10
2022-10-28T07:45:23.889Z,11.10
2022-10-28T07:48:20.735Z,11.20
2022-10-28T07:51:17.579Z,11.20
2022-10-28T07:54:14.422Z,11.30
2022-10-28T07:57:11.306Z,11.40
2022-10-28T08:00:09.143Z,11.40
2022-10-28T08:03:06.097Z,11.50
2022-10-28T08:06:12.340Z,11.60
2022-10-28T08:09:09.179Z,11.50
2022-10-28T08:12:09.425Z,11.60
2022-10-28T08:15:09.479Z,11.70
2022-10-28T08:18:06.447Z,11.80
2022-10-28T08:21:05.836Z,11.80
2022-10-28T08:24:02.723Z,11.90
2022-10-28T08:26:59.557Z,11.90
2022-10-28T08:29:56.419Z,12.00
2022-10-28T08:32:57.625Z,12.00
2022-10-28T08:35:54.467Z,12.10
2022-10-28T08:38:51.417Z,12.10
2022-10-28T08:42:26.001Z,12.20
2022-10-28T08:45:52.114Z,12.30
2022-10-28T08:48:50.898Z,12.50
2022-10-28T08:52:08.419Z,12.60
2022-10-28T08:55:19.484Z,12.70
2022-10-28T08:58:36.698Z,12.80
2022-10-28T09:01:49.398Z,12.90
2022-10-28T09:04:47.863Z,13.10
2022-10-28T09:07:44.720Z,13.30
2022-10-28T09:10:55.455Z,13.60
2022-10-28T09:14:23.388Z,13.70
2022-10-28T09:17:33.929Z,14.00
2022-10-28T09:20:57.195Z,14.60
2022-10-28T09:24:19.900Z,14.90
2022-10-28T09:27:43.035Z,16.30
2022-10-28T09:31:11.418Z,17.50
2022-10-28T09:35:06.349Z,18.30
2022-10-28T09:38:27.057Z,19.10
2022-10-28T09:41:43.470Z,19.50
2022-10-28T09:45:05.198Z,19.60
2022-10-28T09:48:32.996Z,20.50
2022-10-28T09:51:50.410Z,20.40
2022-10-28T09:54:56.195Z,20.60
2022-10-28T09:57:53.532Z,20.30
2022-10-28T10:00:50.687Z,20.30
2022-10-28T10:03:54.020Z,20.50
2022-10-28T10:07:12.315Z,20.80
2022-10-28T10:10:28.736Z,21.20
2022-10-28T10:13:35.590Z,21.30
2022-10-28T10:16:46.972Z,21.10
2022-10-28T10:20:14.506Z,21.20
2022-10-28T10:23:34.165Z,21.40
2022-10-28T10:26:33.401Z,20.70
2022-10-28T10:29:32.329Z,19.40
2022-10-28T10:32:32.274Z,18.70
2022-10-28T10:35:33.443Z,18.30
2022-10-28T10:38:31.878Z,18.10
2022-10-28T10:41:43.053Z,18.00
2022-10-28T10:44:39.958Z,18.10
2022-10-28T10:47:36.909Z,18.00
2022-10-28T10:50:34.537Z,17.80
2022-10-28T10:53:33.297Z,18.00
2022-10-28T10:56:33.052Z,18.20
2022-10-28T10:59:31.606Z,19.80
2022-10-28T11:02:35.018Z,20.70
2022-10-28T11:05:38.192Z,21.40
2022-10-28T11:08:42.626Z,21.70
2022-10-28T11:11:41.021Z,21.60
2022-10-28T11:14:37.840Z,22.10
2022-10-28T11:17:35.013Z,21.90
2022-10-28T11:21:07.195Z,21.80
2022-10-28T11:24:16.028Z,21.80
2022-10-28T11:27:43.362Z,21.60
2022-10-28T11:31:02.762Z,21.60
2022-10-28T11:34:56.911Z,22.00
2022-10-28T11:38:18.896Z,22.10
2022-10-28T11:41:35.796Z,22.20
2022-10-28T11:45:08.802Z,22.60
2022-10-28T11:48:21.931Z,22.50
2022-10-28T11:51:24.581Z,22.60
2022-10-28T11:54:43.066Z,22.50
2022-10-28T11:57:49.139Z,22.10
2022-10-28T12:01:09.618Z,22.40
2022-10-28T12:04:35.602Z,22.40
2022-10-28T12:08:05.295Z,22.40
2022-10-28T12:11:11.488Z,22.20
2022-10-28T12:14:54.468Z,22.30
2022-10-28T12:18:00.250Z,22.20
2022-10-28T12:21:31.644Z,22.10
2022-10-28T12:24:30.931Z,21.90
2022-10-28T12:27:37.740Z,22.00
2022-10-28T12:30:40.574Z,21.60
2022-10-28T12:33:46.386Z,22.10
2022-10-28T12:36:53.657Z,22.20
2022-10-28T12:40:18.432Z,22.40
2022-10-28T12:43:43.804Z,22.40
2022-10-28T12:47:39.073Z,22.40
2022-10-28T12:51:03.354Z,22.30
2022-10-28T12:54:30.258Z,22.30
2022-10-28T12:57:30.911Z,22.30
2022-10-28T13:00:37.693Z,22.30
2022-10-28T13:03:35.395Z,22.40
2022-10-28T13:07:09.489Z,23.10
2022-10-28T13:10:34.324Z,23.10
2022-10-28T13:13:52.301Z,22.80
2022-10-28T13:17:26.677Z,22.90
2022-10-28T13:20:52.468Z,22.80
2022-10-28T13:24:03.765Z,22.90
2022-10-28T13:27:05.015Z,22.70
2022-10-28T13:30:03.494Z,22.40
2022-10-28T13:33:15.689Z,21.70
2022-10-28T13:36:20.444Z,21.20
2022-10-28T13:39:44.002Z,21.00
2022-10-28T13:42:47.885Z,21.00
2022-10-28T13:45:53.664Z,20.90
2022-10-28T13:48:50.616Z,20.70
2022-10-28T13:51:51.323Z,20.70
2022-10-28T13:54:56.017Z,20.60
2022-10-28T13:58:03.760Z,20.20
2022-10-28T14:02:07.943Z,20.00
2022-10-28T14:05:19.465Z,19.80
2022-10-28T14:08:40.175Z,19.60
2022-10-28T14:11:36.952Z,19.60
2022-10-28T14:14:33.898Z,19.50
2022-10-28T14:17:40.126Z,19.10
2022-10-28T14:20:42.225Z,19.60
2022-10-28T14:23:45.137Z,19.50
2022-10-28T14:27:39.323Z,19.20
2022-10-28T14:30:37.247Z,19.30
2022-10-28T14:33:36.290Z,19.10
2022-10-28T14:37:00.198Z,19.10
2022-10-28T14:40:02.879Z,19.10
2022-10-28T14:43:16.285Z,19.00
2022-10-28T14:46:47.326Z,18.70
2022-10-28T14:50:26.166Z,18.40
2022-10-28T14:53:30.413Z,18.10
2022-10-28T14:56:31.831Z,17.90
2022-10-28T14:59:42.524Z,17.80
2022-10-28T15:02:39.572Z,17.70
2022-10-28T15:05:36.648Z,17.70
2022-10-28T15:08:34.267Z,17.30
2022-10-28T15:11:31.767Z,17.40
2022-10-28T15:14:53.713Z,17.10
2022-10-28T15:17:50.982Z,17.40
2022-10-28T15:20:47.826Z,17.70
2022-10-28T15:23:47.351Z,17.60
2022-10-28T15:26:44.567Z,17.40
2022-10-28T15:29:43.152Z,17.50
2022-10-28T15:32:40.069Z,17.30
2022-10-28T15:35:38.403Z,17.10
2022-10-28T15:38:40.132Z,16.90
2022-10-28T15:41:50.964Z,16.80
2022-10-28T15:44:54.199Z,16.80
2022-10-28T15:47:52.035Z,16.70
2022-10-28T15:51:13.429Z,17.00
2022-10-28T15:54:18.479Z,17.00
2022-10-28T15:57:46.479Z,16.70
2022-10-28T16:00:55.511Z,16.50
2022-10-28T16:03:52.696Z,16.20
2022-10-28T16:07:00.535Z,16.20
2022-10-28T16:09:57.852Z,16.10
2022-10-28T16:12:54.917Z,16.20
2022-10-28T16:15:59.624Z,16.10
2022-10-28T16:19:19.334Z,15.90
2022-10-28T16:22:18.342Z,15.90
2022-10-28T16:25:21.659Z,15.60
2022-10-28T16:28:26.838Z,15.50
2022-10-28T16:31:28.519Z,15.50
2022-10-28T16:34:25.683Z,15.40
2022-10-28T16:37:34.301Z,15.30
2022-10-28T16:43:53.040Z,15.30
2022-10-28T16:46:49.947Z,15.50
2022-10-28T16:49:52.547Z,15.40
2022-10-28T16:52:56.096Z,15.30
2022-10-28T16:55:58.790Z,15.40
2022-10-28T16:58:55.836Z,15.20
2022-10-28T17:01:52.925Z,15.30
2022-10-28T17:04:49.910Z,15.30
2022-10-28T17:07:46.949Z,15.10
2022-10-28T17:10:43.971Z,15.00
2022-10-28T17:13:40.893Z,14.90
2022-10-28T17:16:40.593Z,14.80
2022-10-28T17:19:41.491Z,14.80
2022-10-28T17:22:40.534Z,14.70
2022-10-28T17:25:37.410Z,14.60
2022-10-28T17:28:34.487Z,14.70
2022-10-28T17:31:31.313Z,14.60
2022-10-28T17:34:28.160Z,14.60
2022-10-28T17:37:25.111Z,14.50
2022-10-28T17:40:22.022Z,14.50
2022-10-28T17:43:18.816Z,14.60
2022-10-28T17:46:15.653Z,14.50
2022-10-28T17:49:12.473Z,14.40
2022-10-28T17:52:09.495Z,14.40
2022-10-28T17:55:07.360Z,14.30
2022-10-28T17:58:04.179Z,14.30
2022-10-28T18:01:07.340Z,14.30
2022-10-28T18:04:06.067Z,14.30
2022-10-28T18:07:02.941Z,14.30
2022-10-28T18:09:59.770Z,14.30
2022-10-28T18:12:56.830Z,14.40
2022-10-28T18:15:54.428Z,14.20
2022-10-28T18:18:53.281Z,14.10
2022-10-28T18:21:50.208Z,14.30
2022-10-28T18:24:47.039Z,14.30
2022-10-28T18:27:43.928Z,14.20
2022-10-28T18:30:40.801Z,14.20
2022-10-28T18:33:38.595Z,14.20
2022-10-28T18:36:35.877Z,14.20
2022-10-28T18:39:32.712Z,14.30
2022-10-28T18:42:29.685Z,14.40
2022-10-28T18:45:26.576Z,14.30
2022-10-28T18:48:23.422Z,14.40
2022-10-28T18:51:20.572Z,14.40
2022-10-28T18:54:17.523Z,14.30
2022-10-28T18:57:14.423Z,14.20
2022-10-28T19:00:18.010Z,14.10
2022-10-28T19:03:21.853Z,14.10
2022-10-28T19:06:19.357Z,14.00
2022-10-28T19:09:16.185Z,14.10
2022-10-28T19:12:13.111Z,14.00
2022-10-28T19:15:10.159Z,13.90
2022-10-28T19:18:08.195Z,14.00
2022-10-28T19:21:10.575Z,13.90
2022-10-28T19:24:07.814Z,14.00
2022-10-28T19:27:04.785Z,14.10
2022-10-28T19:30:05.505Z,14.00
2022-10-28T19:33:04.797Z,14.00
2022-10-28T19:36:26.303Z,13.90
2022-10-28T19:39:23.190Z,13.90
2022-10-28T19:42:20.031Z,13.90
2022-10-28T19:45:16.893Z,14.00
2022-10-28T19:48:13.723Z,14.00
2022-10-28T19:51:19.055Z,13.80
2022-10-28T19:54:15.947Z,13.80
2022-10-28T20:00:14.858Z,13.70
2022-10-28T20:03:11.673Z,13.70
2022-10-28T20:06:11.973Z,13.60
2022-10-28T20:09:09.437Z,13.40
2022-10-28T20:12:06.503Z,13.60
2022-10-28T20:15:03.926Z,13.50
2022-10-28T20:18:00.754Z,13.50
2022-10-28T20:21:06.028Z,13.50
2022-10-28T20:24:06.382Z,13.40
2022-10-28T20:27:03.393Z,13.30
2022-10-28T20:30:00.828Z,13.30
2022-10-28T20:32:57.656Z,13.20
2022-10-28T20:35:55.814Z,13.20
2022-10-28T20:38:59.990Z,13.10
2022-10-28T20:41:56.856Z,13.00
2022-10-28T20:44:53.680Z,13.00
2022-10-28T20:47:53.018Z,13.10
2022-10-28T20:50:55.835Z,13.10
2022-10-28T20:53:52.819Z,12.90
2022-10-28T20:56:49.763Z,12.80
2022-10-28T20:59:46.622Z,12.70
2022-10-28T21:02:43.580Z,12.80
2022-10-28T21:05:42.155Z,12.80
2022-10-28T21:08:39.133Z,12.80
2022-10-28T21:11:36.043Z,12.80
2022-10-28T21:14:32.854Z,12.70
2022-10-28T21:17:29.725Z,12.60
2022-10-28T21:20:26.536Z,12.60
2022-10-28T21:23:24.051Z,12.50
2022-10-28T21:26:21.701Z,12.60
2022-10-28T21:29:18.548Z,12.40
2022-10-28T21:32:15.385Z,12.40
2022-10-28T21:35:12.299Z,12.40
2022-10-28T21:38:10.509Z,12.40
2022-10-28T21:41:10.852Z,12.30
2022-10-28T21:44:07.721Z,12.40
2022-10-28T21:47:04.595Z,12.40
2022-10-28T21:50:01.423Z,12.30
2022-10-28T21:53:03.693Z,12.20
2022-10-28T21:56:08.329Z,12.20
2022-10-28T21:59:05.983Z,12.20
2022-10-28T22:02:02.922Z,12.20
2022-10-28T22:04:59.875Z,12.10
2022-10-28T22:07:56.809Z,12.10
2022-10-28T22:11:06.210Z,12.10
2022-10-28T22:14:04.820Z,12.10
2022-10-28T22:17:01.752Z,12.10
2022-10-28T22:19:58.587Z,12.10
2022-10-28T22:22:55.741Z,12.10
2022-10-28T22:25:52.810Z,12.10
2022-10-28T22:28:50.548Z,12.10
2022-10-28T22:31:47.719Z,12.10
2022-10-28T22:34:44.560Z,12.20
2022-10-28T22:37:41.390Z,12.10
2022-10-28T22:40:38.230Z,12.10
2022-10-28T22:43:35.491Z,12.20
2022-10-28T22:46:33.892Z,12.10
2022-10-28T22:49:30.813Z,11.90
2022-10-28T22:52:27.640Z,12.00
2022-10-28T22:55:24.503Z,11.80
2022-10-28T22:58:23.346Z,11.80
2022-10-28T23:01:20.880Z,11.80
2022-10-28T23:04:17.789Z,11.70
2022-10-28T23:07:14.599Z,11.70
2022-10-28T23:10:11.462Z,11.70
2022-10-28T23:13:12.411Z,11.70
2022-10-28T23:16:12.727Z,11.60
2022-10-28T23:19:09.566Z,11.60
2022-10-28T23:22:06.426Z,11.60
2022-10-28T23:25:03.335Z,11.60
2022-10-28T23:28:00.202Z,11.50
2022-10-28T23:31:05.826Z,11.40
2022-10-28T23:34:02.685Z,11.40
2022-10-28T23:36:59.522Z,11.40
2022-10-28T23:39:56.455Z,11.30
2022-10-28T23:42:53.682Z,11.20
2022-10-28T23:45:50.951Z,11.30
2022-10-28T23:48:47.814Z,11.20
2022-10-28T23:51:44.618Z,11.20
2022-10-28T23:54:41.488Z,11.10
2022-10-28T23:57:38.295Z,11.00
